sensor_id;sensor_type;location;lat;lon;timestamp;P1;durP1;ratioP1;P2;durP2;ratioP2
10761;SDS011;5433;50.862;4.320;2023-06-14T00:02:08;6.13;;;5.20;;
10761;SDS011;5433;50.862;4.320;2023-06-14T00:04:35;6.00;;;5.40;;
10761;SDS011;5433;50.862;4.320;2023-06-14T00:07:02;8.50;;;5.53;;
10761;SDS011;5433;50.862;4.320;2023-06-14T00:09:28;8.35;;;5.50;;
10761;SDS011;5433;50.862;4.320;2023-06-14T00:11:54;7.43;;;5.40;;
10761;SDS011;5433;50.862;4.320;2023-06-14T00:14:20;7.70;;;5.20;;
10761;SDS011;5433;50.862;4.320;2023-06-14T00:16:46;8.25;;;5.85;;
10761;SDS011;5433;50.862;4.320;2023-06-14T00:19:13;6.13;;;5.53;;
10761;SDS011;5433;50.862;4.320;2023-06-14T00:21:39;10.98;;;5.60;;
10761;SDS011;5433;50.862;4.320;2023-06-14T00:24:07;6.00;;;5.40;;
10761;SDS011;5433;50.862;4.320;2023-06-14T00:26:34;6.15;;;5.55;;
10761;SDS011;5433;50.862;4.320;2023-06-14T00:29:00;6.18;;;5.60;;
10761;SDS011;5433;50.862;4.320;2023-06-14T00:31:26;6.97;;;5.30;;
10761;SDS011;5433;50.862;4.320;2023-06-14T00:33:53;7.35;;;5.68;;
10761;SDS011;5433;50.862;4.320;2023-06-14T00:36:19;7.70;;;5.70;;
10761;SDS011;5433;50.862;4.320;2023-06-14T00:38:45;6.35;;;5.50;;
10761;SDS011;5433;50.862;4.320;2023-06-14T00:41:11;6.55;;;5.65;;
10761;SDS011;5433;50.862;4.320;2023-06-14T00:43:37;6.40;;;5.50;;
10761;SDS011;5433;50.862;4.320;2023-06-14T00:46:03;6.07;;;5.47;;
10761;SDS011;5433;50.862;4.320;2023-06-14T00:48:29;8.07;;;5.47;;
10761;SDS011;5433;50.862;4.320;2023-06-14T00:50:55;7.60;;;5.82;;
10761;SDS011;5433;50.862;4.320;2023-06-14T00:53:22;7.82;;;5.45;;
10761;SDS011;5433;50.862;4.320;2023-06-14T00:55:50;7.07;;;5.95;;
10761;SDS011;5433;50.862;4.320;2023-06-14T00:58:16;6.07;;;5.35;;
10761;SDS011;5433;50.862;4.320;2023-06-14T01:00:42;8.23;;;5.85;;
10761;SDS011;5433;50.862;4.320;2023-06-14T01:03:09;8.10;;;5.78;;
10761;SDS011;5433;50.862;4.320;2023-06-14T01:05:37;7.45;;;5.95;;
10761;SDS011;5433;50.862;4.320;2023-06-14T01:10:32;8.02;;;6.10;;
10761;SDS011;5433;50.862;4.320;2023-06-14T01:13:09;7.22;;;5.63;;
10761;SDS011;5433;50.862;4.320;2023-06-14T01:15:37;6.85;;;6.10;;
10761;SDS011;5433;50.862;4.320;2023-06-14T01:18:04;7.63;;;5.50;;
10761;SDS011;5433;50.862;4.320;2023-06-14T01:20:33;6.88;;;5.97;;
10761;SDS011;5433;50.862;4.320;2023-06-14T01:23:02;7.32;;;5.78;;
10761;SDS011;5433;50.862;4.320;2023-06-14T01:25:29;7.18;;;6.28;;
10761;SDS011;5433;50.862;4.320;2023-06-14T01:27:57;10.73;;;5.97;;
10761;SDS011;5433;50.862;4.320;2023-06-14T01:30:24;8.43;;;5.90;;
10761;SDS011;5433;50.862;4.320;2023-06-14T01:32:50;8.50;;;5.70;;
10761;SDS011;5433;50.862;4.320;2023-06-14T01:35:17;8.20;;;5.90;;
10761;SDS011;5433;50.862;4.320;2023-06-14T01:37:43;9.18;;;6.35;;
10761;SDS011;5433;50.862;4.320;2023-06-14T01:40:11;7.72;;;5.78;;
10761;SDS011;5433;50.862;4.320;2023-06-14T01:42:37;8.55;;;5.80;;
10761;SDS011;5433;50.862;4.320;2023-06-14T01:45:04;7.88;;;6.28;;
10761;SDS011;5433;50.862;4.320;2023-06-14T01:47:31;6.82;;;6.13;;
10761;SDS011;5433;50.862;4.320;2023-06-14T01:49:57;11.45;;;6.55;;
10761;SDS011;5433;50.862;4.320;2023-06-14T01:52:23;7.18;;;6.25;;
10761;SDS011;5433;50.862;4.320;2023-06-14T01:54:50;6.85;;;6.18;;
10761;SDS011;5433;50.862;4.320;2023-06-14T01:57:16;6.68;;;6.00;;
10761;SDS011;5433;50.862;4.320;2023-06-14T01:59:42;7.50;;;6.35;;
10761;SDS011;5433;50.862;4.320;2023-06-14T02:02:13;6.95;;;6.28;;
10761;SDS011;5433;50.862;4.320;2023-06-14T02:04:39;7.65;;;6.68;;
10761;SDS011;5433;50.862;4.320;2023-06-14T02:07:05;8.07;;;6.45;;
10761;SDS011;5433;50.862;4.320;2023-06-14T02:09:31;7.32;;;6.47;;
10761;SDS011;5433;50.862;4.320;2023-06-14T02:11:57;9.73;;;6.22;;
10761;SDS011;5433;50.862;4.320;2023-06-14T02:14:23;8.95;;;6.28;;
10761;SDS011;5433;50.862;4.320;2023-06-14T02:16:49;8.10;;;6.30;;
10761;SDS011;5433;50.862;4.320;2023-06-14T02:19:15;7.90;;;6.50;;
10761;SDS011;5433;50.862;4.320;2023-06-14T02:21:42;10.25;;;6.75;;
10761;SDS011;5433;50.862;4.320;2023-06-14T02:24:08;10.70;;;6.88;;
10761;SDS011;5433;50.862;4.320;2023-06-14T02:26:35;7.05;;;6.40;;
10761;SDS011;5433;50.862;4.320;2023-06-14T02:29:03;8.50;;;6.35;;
10761;SDS011;5433;50.862;4.320;2023-06-14T02:31:30;7.65;;;6.57;;
10761;SDS011;5433;50.862;4.320;2023-06-14T02:33:56;9.18;;;6.72;;
10761;SDS011;5433;50.862;4.320;2023-06-14T02:36:22;7.32;;;6.53;;
10761;SDS011;5433;50.862;4.320;2023-06-14T02:38:49;7.50;;;6.13;;
10761;SDS011;5433;50.862;4.320;2023-06-14T02:41:15;7.45;;;6.65;;
10761;SDS011;5433;50.862;4.320;2023-06-14T02:43:41;8.30;;;6.78;;
10761;SDS011;5433;50.862;4.320;2023-06-14T02:46:07;7.05;;;6.35;;
10761;SDS011;5433;50.862;4.320;2023-06-14T02:48:33;9.93;;;7.00;;
10761;SDS011;5433;50.862;4.320;2023-06-14T02:50:59;8.45;;;6.85;;
10761;SDS011;5433;50.862;4.320;2023-06-14T02:53:25;7.47;;;6.70;;
10761;SDS011;5433;50.862;4.320;2023-06-14T02:55:51;9.25;;;7.00;;
10761;SDS011;5433;50.862;4.320;2023-06-14T02:58:17;9.02;;;7.05;;
10761;SDS011;5433;50.862;4.320;2023-06-14T03:00:44;8.02;;;7.05;;
10761;SDS011;5433;50.862;4.320;2023-06-14T03:03:10;8.77;;;7.05;;
10761;SDS011;5433;50.862;4.320;2023-06-14T03:05:41;8.52;;;6.60;;
10761;SDS011;5433;50.862;4.320;2023-06-14T03:08:11;10.15;;;7.70;;
10761;SDS011;5433;50.862;4.320;2023-06-14T03:10:41;10.23;;;7.20;;
10761;SDS011;5433;50.862;4.320;2023-06-14T03:13:08;9.20;;;7.30;;
10761;SDS011;5433;50.862;4.320;2023-06-14T03:15:36;10.40;;;7.20;;
10761;SDS011;5433;50.862;4.320;2023-06-14T03:18:03;9.65;;;7.18;;
10761;SDS011;5433;50.862;4.320;2023-06-14T03:20:29;8.93;;;7.28;;
10761;SDS011;5433;50.862;4.320;2023-06-14T03:22:58;8.55;;;7.50;;
10761;SDS011;5433;50.862;4.320;2023-06-14T03:25:24;9.20;;;7.30;;
10761;SDS011;5433;50.862;4.320;2023-06-14T03:27:51;7.53;;;6.82;;
10761;SDS011;5433;50.862;4.320;2023-06-14T03:30:17;8.80;;;7.90;;
10761;SDS011;5433;50.862;4.320;2023-06-14T03:32:43;8.98;;;7.78;;
10761;SDS011;5433;50.862;4.320;2023-06-14T03:35:09;9.32;;;6.95;;
10761;SDS011;5433;50.862;4.320;2023-06-14T03:37:41;8.30;;;7.30;;
10761;SDS011;5433;50.862;4.320;2023-06-14T03:40:08;9.85;;;7.70;;
10761;SDS011;5433;50.862;4.320;2023-06-14T03:42:34;8.23;;;7.43;;
10761;SDS011;5433;50.862;4.320;2023-06-14T03:45:00;9.20;;;7.03;;
10761;SDS011;5433;50.862;4.320;2023-06-14T03:47:26;10.27;;;7.60;;
10761;SDS011;5433;50.862;4.320;2023-06-14T03:49:52;8.82;;;6.85;;
10761;SDS011;5433;50.862;4.320;2023-06-14T03:52:18;7.95;;;7.15;;
10761;SDS011;5433;50.862;4.320;2023-06-14T03:54:44;9.23;;;7.50;;
10761;SDS011;5433;50.862;4.320;2023-06-14T03:57:11;7.85;;;7.15;;
10761;SDS011;5433;50.862;4.320;2023-06-14T03:59:37;8.38;;;7.55;;
10761;SDS011;5433;50.862;4.320;2023-06-14T04:02:03;9.10;;;7.25;;
10761;SDS011;5433;50.862;4.320;2023-06-14T04:04:29;9.40;;;6.95;;
10761;SDS011;5433;50.862;4.320;2023-06-14T04:06:56;10.02;;;7.63;;
10761;SDS011;5433;50.862;4.320;2023-06-14T04:09:24;8.27;;;7.25;;
10761;SDS011;5433;50.862;4.320;2023-06-14T04:11:51;8.18;;;7.43;;
10761;SDS011;5433;50.862;4.320;2023-06-14T04:14:18;8.55;;;7.38;;
10761;SDS011;5433;50.862;4.320;2023-06-14T04:16:44;11.80;;;7.35;;
10761;SDS011;5433;50.862;4.320;2023-06-14T04:19:13;12.00;;;7.53;;
10761;SDS011;5433;50.862;4.320;2023-06-14T04:21:39;9.25;;;7.55;;
10761;SDS011;5433;50.862;4.320;2023-06-14T04:24:06;9.68;;;7.78;;
10761;SDS011;5433;50.862;4.320;2023-06-14T04:26:32;9.38;;;7.55;;
10761;SDS011;5433;50.862;4.320;2023-06-14T04:28:58;11.63;;;7.47;;
10761;SDS011;5433;50.862;4.320;2023-06-14T04:31:30;7.95;;;7.18;;
10761;SDS011;5433;50.862;4.320;2023-06-14T04:34:02;11.20;;;7.50;;
10761;SDS011;5433;50.862;4.320;2023-06-14T04:36:31;9.63;;;8.15;;
10761;SDS011;5433;50.862;4.320;2023-06-14T04:38:59;10.02;;;7.43;;
10761;SDS011;5433;50.862;4.320;2023-06-14T04:41:25;10.93;;;7.95;;
10761;SDS011;5433;50.862;4.320;2023-06-14T04:43:55;11.10;;;7.57;;
10761;SDS011;5433;50.862;4.320;2023-06-14T04:46:23;9.80;;;7.30;;
10761;SDS011;5433;50.862;4.320;2023-06-14T04:48:49;13.55;;;8.07;;
10761;SDS011;5433;50.862;4.320;2023-06-14T04:51:16;9.80;;;7.30;;
10761;SDS011;5433;50.862;4.320;2023-06-14T04:53:45;12.98;;;8.15;;
10761;SDS011;5433;50.862;4.320;2023-06-14T04:56:11;9.95;;;7.75;;
10761;SDS011;5433;50.862;4.320;2023-06-14T04:58:37;10.05;;;7.95;;
10761;SDS011;5433;50.862;4.320;2023-06-14T05:01:03;10.43;;;7.43;;
10761;SDS011;5433;50.862;4.320;2023-06-14T05:03:29;13.05;;;7.90;;
10761;SDS011;5433;50.862;4.320;2023-06-14T05:05:56;11.82;;;7.50;;
10761;SDS011;5433;50.862;4.320;2023-06-14T05:08:30;13.52;;;7.72;;
10761;SDS011;5433;50.862;4.320;2023-06-14T05:10:56;13.00;;;7.95;;
10761;SDS011;5433;50.862;4.320;2023-06-14T05:13:23;12.90;;;7.55;;
10761;SDS011;5433;50.862;4.320;2023-06-14T05:15:49;11.50;;;7.47;;
10761;SDS011;5433;50.862;4.320;2023-06-14T05:18:15;14.95;;;7.45;;
10761;SDS011;5433;50.862;4.320;2023-06-14T05:20:41;13.98;;;8.07;;
10761;SDS011;5433;50.862;4.320;2023-06-14T05:23:08;13.88;;;7.72;;
10761;SDS011;5433;50.862;4.320;2023-06-14T05:25:39;10.63;;;7.63;;
10761;SDS011;5433;50.862;4.320;2023-06-14T05:28:06;10.15;;;8.02;;
10761;SDS011;5433;50.862;4.320;2023-06-14T05:30:32;10.02;;;7.70;;
10761;SDS011;5433;50.862;4.320;2023-06-14T05:32:58;9.95;;;7.47;;
10761;SDS011;5433;50.862;4.320;2023-06-14T05:35:24;10.55;;;7.72;;
10761;SDS011;5433;50.862;4.320;2023-06-14T05:37:51;9.45;;;7.65;;
10761;SDS011;5433;50.862;4.320;2023-06-14T05:40:18;9.43;;;7.93;;
10761;SDS011;5433;50.862;4.320;2023-06-14T05:42:45;12.65;;;7.78;;
10761;SDS011;5433;50.862;4.320;2023-06-14T05:45:11;13.75;;;8.35;;
10761;SDS011;5433;50.862;4.320;2023-06-14T05:47:37;11.45;;;7.65;;
10761;SDS011;5433;50.862;4.320;2023-06-14T05:50:03;11.27;;;7.57;;
10761;SDS011;5433;50.862;4.320;2023-06-14T05:52:30;14.63;;;7.82;;
10761;SDS011;5433;50.862;4.320;2023-06-14T05:54:56;10.80;;;7.68;;
10761;SDS011;5433;50.862;4.320;2023-06-14T05:57:22;12.88;;;7.95;;
10761;SDS011;5433;50.862;4.320;2023-06-14T05:59:48;13.27;;;8.05;;
10761;SDS011;5433;50.862;4.320;2023-06-14T06:02:15;10.63;;;7.78;;
10761;SDS011;5433;50.862;4.320;2023-06-14T06:04:41;11.13;;;7.57;;
10761;SDS011;5433;50.862;4.320;2023-06-14T06:07:07;10.63;;;7.68;;
10761;SDS011;5433;50.862;4.320;2023-06-14T06:09:33;14.88;;;8.00;;
10761;SDS011;5433;50.862;4.320;2023-06-14T06:11:59;15.20;;;7.90;;
10761;SDS011;5433;50.862;4.320;2023-06-14T06:14:25;11.93;;;7.57;;
10761;SDS011;5433;50.862;4.320;2023-06-14T06:16:51;17.17;;;8.35;;
10761;SDS011;5433;50.862;4.320;2023-06-14T06:19:18;8.65;;;7.50;;
10761;SDS011;5433;50.862;4.320;2023-06-14T06:21:44;9.75;;;7.72;;
10761;SDS011;5433;50.862;4.320;2023-06-14T06:24:10;13.00;;;7.80;;
10761;SDS011;5433;50.862;4.320;2023-06-14T06:26:36;10.45;;;7.70;;
10761;SDS011;5433;50.862;4.320;2023-06-14T06:29:02;13.32;;;7.30;;
10761;SDS011;5433;50.862;4.320;2023-06-14T06:31:28;14.77;;;7.72;;
10761;SDS011;5433;50.862;4.320;2023-06-14T06:33:54;11.50;;;7.88;;
10761;SDS011;5433;50.862;4.320;2023-06-14T06:36:21;11.93;;;7.15;;
10761;SDS011;5433;50.862;4.320;2023-06-14T06:38:50;11.00;;;7.43;;
10761;SDS011;5433;50.862;4.320;2023-06-14T06:41:16;9.90;;;7.32;;
10761;SDS011;5433;50.862;4.320;2023-06-14T06:43:42;11.70;;;7.45;;
10761;SDS011;5433;50.862;4.320;2023-06-14T06:46:08;7.75;;;6.75;;
10761;SDS011;5433;50.862;4.320;2023-06-14T06:48:34;8.45;;;6.43;;
10761;SDS011;5433;50.862;4.320;2023-06-14T06:51:00;10.20;;;7.18;;
10761;SDS011;5433;50.862;4.320;2023-06-14T06:53:26;8.25;;;6.82;;
10761;SDS011;5433;50.862;4.320;2023-06-14T06:55:52;9.55;;;6.80;;
10761;SDS011;5433;50.862;4.320;2023-06-14T06:58:18;10.20;;;7.28;;
10761;SDS011;5433;50.862;4.320;2023-06-14T07:00:47;12.15;;;6.43;;
10761;SDS011;5433;50.862;4.320;2023-06-14T07:03:13;11.38;;;6.78;;
10761;SDS011;5433;50.862;4.320;2023-06-14T07:05:39;9.20;;;6.53;;
10761;SDS011;5433;50.862;4.320;2023-06-14T07:08:05;10.23;;;6.50;;
10761;SDS011;5433;50.862;4.320;2023-06-14T07:10:31;13.02;;;6.90;;
10761;SDS011;5433;50.862;4.320;2023-06-14T07:12:57;10.05;;;6.25;;
10761;SDS011;5433;50.862;4.320;2023-06-14T07:15:23;9.23;;;6.40;;
10761;SDS011;5433;50.862;4.320;2023-06-14T07:17:49;9.45;;;6.10;;
10761;SDS011;5433;50.862;4.320;2023-06-14T07:20:16;16.77;;;7.07;;
10761;SDS011;5433;50.862;4.320;2023-06-14T07:22:42;18.02;;;6.93;;
10761;SDS011;5433;50.862;4.320;2023-06-14T07:25:09;10.82;;;6.88;;
10761;SDS011;5433;50.862;4.320;2023-06-14T07:27:37;10.05;;;6.72;;
10761;SDS011;5433;50.862;4.320;2023-06-14T07:30:03;9.02;;;6.90;;
10761;SDS011;5433;50.862;4.320;2023-06-14T07:32:29;8.88;;;6.70;;
10761;SDS011;5433;50.862;4.320;2023-06-14T07:34:55;9.90;;;6.32;;
10761;SDS011;5433;50.862;4.320;2023-06-14T07:37:21;10.43;;;6.68;;
10761;SDS011;5433;50.862;4.320;2023-06-14T07:39:47;9.80;;;6.68;;
10761;SDS011;5433;50.862;4.320;2023-06-14T07:42:13;11.10;;;6.68;;
10761;SDS011;5433;50.862;4.320;2023-06-14T07:44:40;12.40;;;6.53;;
10761;SDS011;5433;50.862;4.320;2023-06-14T07:47:06;10.35;;;6.55;;
10761;SDS011;5433;50.862;4.320;2023-06-14T07:49:32;8.07;;;6.65;;
10761;SDS011;5433;50.862;4.320;2023-06-14T07:51:58;9.80;;;6.90;;
10761;SDS011;5433;50.862;4.320;2023-06-14T07:54:24;13.80;;;6.90;;
10761;SDS011;5433;50.862;4.320;2023-06-14T07:56:51;9.68;;;6.40;;
10761;SDS011;5433;50.862;4.320;2023-06-14T07:59:17;8.90;;;6.45;;
10761;SDS011;5433;50.862;4.320;2023-06-14T08:01:43;9.55;;;6.28;;
10761;SDS011;5433;50.862;4.320;2023-06-14T08:04:12;8.80;;;6.10;;
10761;SDS011;5433;50.862;4.320;2023-06-14T08:06:38;11.23;;;6.13;;
10761;SDS011;5433;50.862;4.320;2023-06-14T08:09:04;10.80;;;6.25;;
10761;SDS011;5433;50.862;4.320;2023-06-14T08:11:30;7.90;;;5.90;;
10761;SDS011;5433;50.862;4.320;2023-06-14T08:13:57;8.85;;;6.22;;
10761;SDS011;5433;50.862;4.320;2023-06-14T08:16:23;9.80;;;6.28;;
10761;SDS011;5433;50.862;4.320;2023-06-14T08:18:49;10.05;;;6.28;;
10761;SDS011;5433;50.862;4.320;2023-06-14T08:21:15;16.95;;;6.80;;
10761;SDS011;5433;50.862;4.320;2023-06-14T08:23:41;9.32;;;6.47;;
10761;SDS011;5433;50.862;4.320;2023-06-14T08:26:08;8.88;;;5.90;;
10761;SDS011;5433;50.862;4.320;2023-06-14T08:28:34;8.57;;;5.93;;
10761;SDS011;5433;50.862;4.320;2023-06-14T08:31:00;7.15;;;5.95;;
10761;SDS011;5433;50.862;4.320;2023-06-14T08:33:26;9.55;;;5.82;;
10761;SDS011;5433;50.862;4.320;2023-06-14T08:35:53;6.97;;;5.15;;
10761;SDS011;5433;50.862;4.320;2023-06-14T08:38:19;7.90;;;5.57;;
10761;SDS011;5433;50.862;4.320;2023-06-14T08:40:48;10.75;;;5.40;;
10761;SDS011;5433;50.862;4.320;2023-06-14T08:43:16;9.65;;;5.40;;
10761;SDS011;5433;50.862;4.320;2023-06-14T08:45:42;8.25;;;6.13;;
10761;SDS011;5433;50.862;4.320;2023-06-14T08:48:08;8.23;;;5.38;;
10761;SDS011;5433;50.862;4.320;2023-06-14T08:50:34;7.55;;;5.97;;
10761;SDS011;5433;50.862;4.320;2023-06-14T08:53:02;7.72;;;5.18;;
10761;SDS011;5433;50.862;4.320;2023-06-14T08:55:29;8.85;;;5.65;;
10761;SDS011;5433;50.862;4.320;2023-06-14T08:57:56;8.45;;;6.07;;
10761;SDS011;5433;50.862;4.320;2023-06-14T09:00:23;10.38;;;5.60;;
10761;SDS011;5433;50.862;4.320;2023-06-14T09:02:49;9.85;;;5.82;;
10761;SDS011;5433;50.862;4.320;2023-06-14T09:05:21;6.25;;;5.38;;
10761;SDS011;5433;50.862;4.320;2023-06-14T09:07:48;7.65;;;5.45;;
10761;SDS011;5433;50.862;4.320;2023-06-14T09:10:15;9.57;;;5.70;;
10761;SDS011;5433;50.862;4.320;2023-06-14T09:12:42;7.57;;;5.45;;
10761;SDS011;5433;50.862;4.320;2023-06-14T09:15:08;7.63;;;5.78;;
10761;SDS011;5433;50.862;4.320;2023-06-14T09:17:35;6.63;;;5.82;;
10761;SDS011;5433;50.862;4.320;2023-06-14T09:20:02;9.10;;;6.18;;
10761;SDS011;5433;50.862;4.320;2023-06-14T09:22:31;9.05;;;5.68;;
10761;SDS011;5433;50.862;4.320;2023-06-14T09:24:58;11.52;;;6.20;;
10761;SDS011;5433;50.862;4.320;2023-06-14T09:27:27;8.80;;;5.45;;
10761;SDS011;5433;50.862;4.320;2023-06-14T09:29:53;10.63;;;5.75;;
10761;SDS011;5433;50.862;4.320;2023-06-14T09:32:20;7.60;;;5.65;;
10761;SDS011;5433;50.862;4.320;2023-06-14T09:34:46;6.55;;;5.65;;
10761;SDS011;5433;50.862;4.320;2023-06-14T09:37:12;9.05;;;5.93;;
10761;SDS011;5433;50.862;4.320;2023-06-14T09:39:50;7.22;;;5.90;;
10761;SDS011;5433;50.862;4.320;2023-06-14T09:42:17;9.65;;;5.60;;
10761;SDS011;5433;50.862;4.320;2023-06-14T09:44:48;8.82;;;6.10;;
10761;SDS011;5433;50.862;4.320;2023-06-14T09:47:18;10.07;;;6.35;;
10761;SDS011;5433;50.862;4.320;2023-06-14T09:49:44;10.38;;;5.88;;
10761;SDS011;5433;50.862;4.320;2023-06-14T09:52:10;11.50;;;5.78;;
10761;SDS011;5433;50.862;4.320;2023-06-14T09:54:40;8.38;;;5.82;;
10761;SDS011;5433;50.862;4.320;2023-06-14T09:57:15;7.50;;;5.97;;
10761;SDS011;5433;50.862;4.320;2023-06-14T09:59:42;8.95;;;5.85;;
10761;SDS011;5433;50.862;4.320;2023-06-14T10:02:14;7.75;;;5.28;;
10761;SDS011;5433;50.862;4.320;2023-06-14T10:04:46;8.10;;;5.53;;
10761;SDS011;5433;50.862;4.320;2023-06-14T10:07:19;6.57;;;5.40;;
10761;SDS011;5433;50.862;4.320;2023-06-14T10:09:46;9.88;;;5.70;;
10761;SDS011;5433;50.862;4.320;2023-06-14T10:12:17;5.70;;;5.20;;
10761;SDS011;5433;50.862;4.320;2023-06-14T10:14:50;6.95;;;5.25;;
10761;SDS011;5433;50.862;4.320;2023-06-14T10:17:23;7.85;;;5.35;;
10761;SDS011;5433;50.862;4.320;2023-06-14T10:19:54;6.85;;;5.35;;
10761;SDS011;5433;50.862;4.320;2023-06-14T10:22:23;6.80;;;5.18;;
10761;SDS011;5433;50.862;4.320;2023-06-14T10:24:51;5.53;;;5.00;;
10761;SDS011;5433;50.862;4.320;2023-06-14T10:27:17;6.18;;;4.97;;
10761;SDS011;5433;50.862;4.320;2023-06-14T10:32:27;5.85;;;4.85;;
10761;SDS011;5433;50.862;4.320;2023-06-14T10:34:54;6.65;;;5.05;;
10761;SDS011;5433;50.862;4.320;2023-06-14T10:37:21;5.30;;;4.70;;
10761;SDS011;5433;50.862;4.320;2023-06-14T10:39:47;5.45;;;4.80;;
10761;SDS011;5433;50.862;4.320;2023-06-14T10:42:14;6.60;;;4.93;;
10761;SDS011;5433;50.862;4.320;2023-06-14T10:47:35;5.75;;;4.88;;
10761;SDS011;5433;50.862;4.320;2023-06-14T10:52:32;8.43;;;4.72;;
10761;SDS011;5433;50.862;4.320;2023-06-14T10:55:01;8.95;;;5.20;;
10761;SDS011;5433;50.862;4.320;2023-06-14T10:57:29;7.45;;;4.80;;
10761;SDS011;5433;50.862;4.320;2023-06-14T10:59:57;6.50;;;5.03;;
10761;SDS011;5433;50.862;4.320;2023-06-14T11:02:27;5.40;;;4.80;;
10761;SDS011;5433;50.862;4.320;2023-06-14T11:04:59;5.93;;;4.82;;
10761;SDS011;5433;50.862;4.320;2023-06-14T11:12:44;7.72;;;4.53;;
10761;SDS011;5433;50.862;4.320;2023-06-14T11:15:13;7.78;;;4.65;;
10761;SDS011;5433;50.862;4.320;2023-06-14T11:17:39;5.50;;;4.95;;
10761;SDS011;5433;50.862;4.320;2023-06-14T11:20:08;11.27;;;4.68;;
10761;SDS011;5433;50.862;4.320;2023-06-14T11:22:41;6.20;;;4.78;;
10761;SDS011;5433;50.862;4.320;2023-06-14T11:25:14;5.38;;;4.50;;
10761;SDS011;5433;50.862;4.320;2023-06-14T11:27:42;6.57;;;4.70;;
10761;SDS011;5433;50.862;4.320;2023-06-14T11:30:08;6.03;;;4.80;;
10761;SDS011;5433;50.862;4.320;2023-06-14T11:32:35;6.03;;;4.55;;
10761;SDS011;5433;50.862;4.320;2023-06-14T11:35:02;8.18;;;4.55;;
10761;SDS011;5433;50.862;4.320;2023-06-14T11:37:29;4.65;;;4.25;;
10761;SDS011;5433;50.862;4.320;2023-06-14T11:40:01;7.05;;;4.50;;
10761;SDS011;5433;50.862;4.320;2023-06-14T11:42:33;6.05;;;4.70;;
10761;SDS011;5433;50.862;4.320;2023-06-14T11:44:59;6.35;;;4.50;;
10761;SDS011;5433;50.862;4.320;2023-06-14T11:47:33;6.28;;;4.30;;
10761;SDS011;5433;50.862;4.320;2023-06-14T11:50:00;5.63;;;4.65;;
10761;SDS011;5433;50.862;4.320;2023-06-14T11:52:26;8.27;;;4.25;;
10761;SDS011;5433;50.862;4.320;2023-06-14T11:54:53;9.25;;;4.70;;
10761;SDS011;5433;50.862;4.320;2023-06-14T11:57:19;6.22;;;4.40;;
10761;SDS011;5433;50.862;4.320;2023-06-14T11:59:46;6.40;;;4.20;;
10761;SDS011;5433;50.862;4.320;2023-06-14T12:02:18;6.70;;;4.40;;
10761;SDS011;5433;50.862;4.320;2023-06-14T12:04:48;14.52;;;4.72;;
10761;SDS011;5433;50.862;4.320;2023-06-14T12:07:15;5.15;;;4.10;;
10761;SDS011;5433;50.862;4.320;2023-06-14T12:12:21;6.15;;;4.47;;
10761;SDS011;5433;50.862;4.320;2023-06-14T12:14:50;7.32;;;4.55;;
10761;SDS011;5433;50.862;4.320;2023-06-14T12:17:16;6.22;;;4.65;;
10761;SDS011;5433;50.862;4.320;2023-06-14T12:19:43;5.32;;;4.10;;
10761;SDS011;5433;50.862;4.320;2023-06-14T12:22:09;6.65;;;4.35;;
10761;SDS011;5433;50.862;4.320;2023-06-14T12:24:36;7.28;;;4.20;;
10761;SDS011;5433;50.862;4.320;2023-06-14T12:27:02;5.93;;;4.15;;
10761;SDS011;5433;50.862;4.320;2023-06-14T12:29:29;7.82;;;4.75;;
10761;SDS011;5433;50.862;4.320;2023-06-14T12:31:55;7.45;;;4.60;;
10761;SDS011;5433;50.862;4.320;2023-06-14T12:34:25;5.88;;;4.20;;
10761;SDS011;5433;50.862;4.320;2023-06-14T12:36:52;9.38;;;4.47;;
10761;SDS011;5433;50.862;4.320;2023-06-14T12:39:18;9.30;;;4.47;;
10761;SDS011;5433;50.862;4.320;2023-06-14T12:41:44;5.93;;;4.07;;
10761;SDS011;5433;50.862;4.320;2023-06-14T12:44:11;7.53;;;3.95;;
10761;SDS011;5433;50.862;4.320;2023-06-14T12:46:37;6.00;;;4.10;;
10761;SDS011;5433;50.862;4.320;2023-06-14T12:49:15;5.75;;;3.92;;
10761;SDS011;5433;50.862;4.320;2023-06-14T12:51:41;5.82;;;4.18;;
10761;SDS011;5433;50.862;4.320;2023-06-14T12:54:08;6.05;;;4.20;;
10761;SDS011;5433;50.862;4.320;2023-06-14T12:56:34;6.05;;;4.10;;
10761;SDS011;5433;50.862;4.320;2023-06-14T12:59:00;5.53;;;3.90;;
10761;SDS011;5433;50.862;4.320;2023-06-14T13:01:26;8.73;;;3.95;;
10761;SDS011;5433;50.862;4.320;2023-06-14T13:03:52;5.45;;;3.97;;
10761;SDS011;5433;50.862;4.320;2023-06-14T13:06:22;9.70;;;3.95;;
10761;SDS011;5433;50.862;4.320;2023-06-14T13:08:49;7.80;;;3.95;;
10761;SDS011;5433;50.862;4.320;2023-06-14T13:11:15;4.78;;;3.90;;
10761;SDS011;5433;50.862;4.320;2023-06-14T13:13:41;5.82;;;3.70;;
10761;SDS011;5433;50.862;4.320;2023-06-14T13:16:07;5.28;;;3.50;;
10761;SDS011;5433;50.862;4.320;2023-06-14T13:18:33;5.78;;;3.60;;
10761;SDS011;5433;50.862;4.320;2023-06-14T13:20:59;5.57;;;3.75;;
10761;SDS011;5433;50.862;4.320;2023-06-14T13:23:26;6.70;;;3.25;;
10761;SDS011;5433;50.862;4.320;2023-06-14T13:25:52;6.20;;;3.75;;
10761;SDS011;5433;50.862;4.320;2023-06-14T13:28:18;5.90;;;3.92;;
10761;SDS011;5433;50.862;4.320;2023-06-14T13:30:45;3.80;;;3.50;;
10761;SDS011;5433;50.862;4.320;2023-06-14T13:33:12;8.73;;;3.67;;
10761;SDS011;5433;50.862;4.320;2023-06-14T13:35:38;4.45;;;3.22;;
10761;SDS011;5433;50.862;4.320;2023-06-14T13:38:04;5.90;;;3.47;;
10761;SDS011;5433;50.862;4.320;2023-06-14T13:40:30;6.43;;;3.40;;
10761;SDS011;5433;50.862;4.320;2023-06-14T13:42:56;3.72;;;3.17;;
10761;SDS011;5433;50.862;4.320;2023-06-14T13:45:22;4.13;;;3.20;;
10761;SDS011;5433;50.862;4.320;2023-06-14T13:47:48;5.47;;;3.28;;
10761;SDS011;5433;50.862;4.320;2023-06-14T13:50:15;4.55;;;3.20;;
10761;SDS011;5433;50.862;4.320;2023-06-14T13:52:41;7.15;;;3.60;;
10761;SDS011;5433;50.862;4.320;2023-06-14T13:55:07;4.82;;;3.30;;
10761;SDS011;5433;50.862;4.320;2023-06-14T13:57:34;12.77;;;3.60;;
10761;SDS011;5433;50.862;4.320;2023-06-14T14:00:00;3.78;;;2.97;;
10761;SDS011;5433;50.862;4.320;2023-06-14T14:02:29;5.50;;;3.03;;
10761;SDS011;5433;50.862;4.320;2023-06-14T14:04:55;4.57;;;3.00;;
10761;SDS011;5433;50.862;4.320;2023-06-14T14:07:24;4.65;;;2.90;;
10761;SDS011;5433;50.862;4.320;2023-06-14T14:10:01;4.70;;;2.60;;
10761;SDS011;5433;50.862;4.320;2023-06-14T14:12:30;5.13;;;2.67;;
10761;SDS011;5433;50.862;4.320;2023-06-14T14:14:56;4.68;;;2.72;;
10761;SDS011;5433;50.862;4.320;2023-06-14T14:17:22;5.25;;;2.60;;
10761;SDS011;5433;50.862;4.320;2023-06-14T14:19:48;5.50;;;2.35;;
10761;SDS011;5433;50.862;4.320;2023-06-14T14:22:14;2.70;;;2.47;;
10761;SDS011;5433;50.862;4.320;2023-06-14T14:24:40;4.50;;;2.20;;
10761;SDS011;5433;50.862;4.320;2023-06-14T14:27:06;3.33;;;2.35;;
10761;SDS011;5433;50.862;4.320;2023-06-14T14:29:35;5.47;;;2.47;;
10761;SDS011;5433;50.862;4.320;2023-06-14T14:32:01;4.38;;;2.03;;
10761;SDS011;5433;50.862;4.320;2023-06-14T14:34:27;5.30;;;2.10;;
10761;SDS011;5433;50.862;4.320;2023-06-14T14:36:53;3.63;;;2.10;;
10761;SDS011;5433;50.862;4.320;2023-06-14T14:39:19;3.35;;;2.50;;
10761;SDS011;5433;50.862;4.320;2023-06-14T14:41:45;2.55;;;2.00;;
10761;SDS011;5433;50.862;4.320;2023-06-14T14:44:11;3.67;;;2.00;;
10761;SDS011;5433;50.862;4.320;2023-06-14T14:46:37;3.78;;;2.00;;
10761;SDS011;5433;50.862;4.320;2023-06-14T14:49:03;7.05;;;1.98;;
10761;SDS011;5433;50.862;4.320;2023-06-14T14:51:29;3.05;;;2.00;;
10761;SDS011;5433;50.862;4.320;2023-06-14T14:53:55;2.90;;;1.80;;
10761;SDS011;5433;50.862;4.320;2023-06-14T14:56:22;2.03;;;1.83;;
10761;SDS011;5433;50.862;4.320;2023-06-14T14:58:48;3.05;;;1.80;;
10761;SDS011;5433;50.862;4.320;2023-06-14T15:01:15;3.40;;;1.80;;
10761;SDS011;5433;50.862;4.320;2023-06-14T15:03:41;3.20;;;1.60;;
10761;SDS011;5433;50.862;4.320;2023-06-14T15:06:07;2.53;;;1.60;;
10761;SDS011;5433;50.862;4.320;2023-06-14T15:08:33;3.65;;;1.83;;
10761;SDS011;5433;50.862;4.320;2023-06-14T15:10:59;3.78;;;1.90;;
10761;SDS011;5433;50.862;4.320;2023-06-14T15:13:27;3.92;;;2.08;;
10761;SDS011;5433;50.862;4.320;2023-06-14T15:15:53;2.58;;;1.70;;